sensor_id;sensor_type;location;lat;lon;timestamp;temperature;humidity
2202;DHT22;1107;48.654;9.250;2023-04-07T00:02:03;6.40;1.00
2202;DHT22;1107;48.654;9.250;2023-04-07T00:04:30;6.40;1.00
2202;DHT22;1107;48.654;9.250;2023-04-07T00:06:57;6.40;1.00
2202;DHT22;1107;48.654;9.250;2023-04-07T00:09:24;6.40;1.00
2202;DHT22;1107;48.654;9.250;2023-04-07T00:11:52;6.40;1.00
2202;DHT22;1107;48.654;9.250;2023-04-07T00:14:18;6.50;1.00
2202;DHT22;1107;48.654;9.250;2023-04-07T00:16:45;6.50;1.00
2202;DHT22;1107;48.654;9.250;2023-04-07T00:19:12;6.50;1.00
2202;DHT22;1107;48.654;9.250;2023-04-07T00:21:38;6.50;99.90
2202;DHT22;1107;48.654;9.250;2023-04-07T00:24:06;6.60;99.90
2202;DHT22;1107;48.654;9.250;2023-04-07T00:26:33;6.50;1.00
2202;DHT22;1107;48.654;9.250;2023-04-07T00:29:01;6.50;1.00
2202;DHT22;1107;48.654;9.250;2023-04-07T00:31:28;6.60;1.00
2202;DHT22;1107;48.654;9.250;2023-04-07T00:33:54;6.50;99.90
2202;DHT22;1107;48.654;9.250;2023-04-07T00:36:21;6.50;99.90
2202;DHT22;1107;48.654;9.250;2023-04-07T00:38:48;6.50;99.90
2202;DHT22;1107;48.654;9.250;2023-04-07T00:41:15;6.50;1.00
2202;DHT22;1107;48.654;9.250;2023-04-07T00:43:42;6.60;99.90
2202;DHT22;1107;48.654;9.250;2023-04-07T00:46:10;6.60;1.00
2202;DHT22;1107;48.654;9.250;2023-04-07T00:48:37;6.60;99.90
2202;DHT22;1107;48.654;9.250;2023-04-07T00:51:03;6.70;99.90
2202;DHT22;1107;48.654;9.250;2023-04-07T00:53:30;6.70;1.00
2202;DHT22;1107;48.654;9.250;2023-04-07T00:55:57;6.70;99.90
2202;DHT22;1107;48.654;9.250;2023-04-07T00:58:23;6.70;1.00
2202;DHT22;1107;48.654;9.250;2023-04-07T01:00:52;6.60;1.00
2202;DHT22;1107;48.654;9.250;2023-04-07T01:03:23;6.60;1.00
2202;DHT22;1107;48.654;9.250;2023-04-07T01:05:53;6.60;1.00
2202;DHT22;1107;48.654;9.250;2023-04-07T01:08:23;6.60;87.00
2202;DHT22;1107;48.654;9.250;2023-04-07T01:10:51;6.50;99.90
2202;DHT22;1107;48.654;9.250;2023-04-07T01:13:21;6.50;99.90
2202;DHT22;1107;48.654;9.250;2023-04-07T01:15:50;6.50;32.30
2202;DHT22;1107;48.654;9.250;2023-04-07T01:18:23;6.50;99.90
2202;DHT22;1107;48.654;9.250;2023-04-07T01:20:51;6.40;31.20
2202;DHT22;1107;48.654;9.250;2023-04-07T01:23:22;6.40;99.90
2202;DHT22;1107;48.654;9.250;2023-04-07T01:25:53;6.40;1.00
2202;DHT22;1107;48.654;9.250;2023-04-07T01:28:37;6.40;99.90
2202;DHT22;1107;48.654;9.250;2023-04-07T01:31:07;6.50;99.90
2202;DHT22;1107;48.654;9.250;2023-04-07T01:33:34;6.50;1.00
2202;DHT22;1107;48.654;9.250;2023-04-07T01:36:02;6.60;1.00
2202;DHT22;1107;48.654;9.250;2023-04-07T01:38:30;6.60;13.60
2202;DHT22;1107;48.654;9.250;2023-04-07T01:40:57;6.60;1.00
2202;DHT22;1107;48.654;9.250;2023-04-07T01:43:24;6.60;1.00
2202;DHT22;1107;48.654;9.250;2023-04-07T01:45:52;6.70;1.00
2202;DHT22;1107;48.654;9.250;2023-04-07T01:48:21;6.70;1.00
2202;DHT22;1107;48.654;9.250;2023-04-07T01:50:48;6.70;99.90
2202;DHT22;1107;48.654;9.250;2023-04-07T01:53:15;6.80;1.00
2202;DHT22;1107;48.654;9.250;2023-04-07T01:55:42;6.80;61.00
2202;DHT22;1107;48.654;9.250;2023-04-07T01:58:09;6.80;1.00
2202;DHT22;1107;48.654;9.250;2023-04-07T02:00:36;6.80;1.00
2202;DHT22;1107;48.654;9.250;2023-04-07T02:03:04;6.60;31.70
2202;DHT22;1107;48.654;9.250;2023-04-07T02:05:33;6.80;1.00
2202;DHT22;1107;48.654;9.250;2023-04-07T02:08:02;6.90;99.90
2202;DHT22;1107;48.654;9.250;2023-04-07T02:10:30;6.90;1.00
2202;DHT22;1107;48.654;9.250;2023-04-07T02:12:59;6.90;1.00
2202;DHT22;1107;48.654;9.250;2023-04-07T02:15:27;6.90;99.90
2202;DHT22;1107;48.654;9.250;2023-04-07T02:17:54;6.90;1.00
2202;DHT22;1107;48.654;9.250;2023-04-07T02:20:21;6.90;1.00
2202;DHT22;1107;48.654;9.250;2023-04-07T02:22:50;6.80;99.90
2202;DHT22;1107;48.654;9.250;2023-04-07T02:25:22;6.80;1.00
2202;DHT22;1107;48.654;9.250;2023-04-07T02:27:49;6.80;1.00
2202;DHT22;1107;48.654;9.250;2023-04-07T02:30:15;6.90;1.00
2202;DHT22;1107;48.654;9.250;2023-04-07T02:32:42;6.90;1.00
2202;DHT22;1107;48.654;9.250;2023-04-07T02:35:09;6.90;1.00
2202;DHT22;1107;48.654;9.250;2023-04-07T02:37:36;6.90;99.90
2202;DHT22;1107;48.654;9.250;2023-04-07T02:40:05;6.90;1.00
2202;DHT22;1107;48.654;9.250;2023-04-07T02:42:32;6.90;99.90
2202;DHT22;1107;48.654;9.250;2023-04-07T02:44:58;6.80;1.00
2202;DHT22;1107;48.654;9.250;2023-04-07T02:47:25;6.80;99.90
2202;DHT22;1107;48.654;9.250;2023-04-07T02:49:52;6.90;99.90
2202;DHT22;1107;48.654;9.250;2023-04-07T02:52:19;6.90;99.90
2202;DHT22;1107;48.654;9.250;2023-04-07T02:54:45;6.90;1.00
2202;DHT22;1107;48.654;9.250;2023-04-07T02:57:14;6.80;99.90
2202;DHT22;1107;48.654;9.250;2023-04-07T02:59:41;6.80;99.90
2202;DHT22;1107;48.654;9.250;2023-04-07T03:02:07;6.80;1.00
2202;DHT22;1107;48.654;9.250;2023-04-07T03:04:34;6.80;1.00
2202;DHT22;1107;48.654;9.250;2023-04-07T03:07:01;6.80;1.00
2202;DHT22;1107;48.654;9.250;2023-04-07T03:09:28;6.70;1.00
2202;DHT22;1107;48.654;9.250;2023-04-07T03:11:55;6.80;99.90
2202;DHT22;1107;48.654;9.250;2023-04-07T03:14:24;6.80;1.00
2202;DHT22;1107;48.654;9.250;2023-04-07T03:16:50;6.80;1.00
2202;DHT22;1107;48.654;9.250;2023-04-07T03:19:17;6.80;34.70
2202;DHT22;1107;48.654;9.250;2023-04-07T03:21:44;6.80;1.00
2202;DHT22;1107;48.654;9.250;2023-04-07T03:24:11;6.80;1.00
2202;DHT22;1107;48.654;9.250;2023-04-07T03:26:37;6.80;99.90
2202;DHT22;1107;48.654;9.250;2023-04-07T03:29:04;6.70;99.90
2202;DHT22;1107;48.654;9.250;2023-04-07T03:31:32;6.70;1.00
2202;DHT22;1107;48.654;9.250;2023-04-07T03:33:59;6.70;1.00
2202;DHT22;1107;48.654;9.250;2023-04-07T03:36:26;6.70;99.90
2202;DHT22;1107;48.654;9.250;2023-04-07T03:38:53;6.70;99.90
2202;DHT22;1107;48.654;9.250;2023-04-07T03:41:20;6.70;1.00
2202;DHT22;1107;48.654;9.250;2023-04-07T03:43:46;6.70;1.00
2202;DHT22;1107;48.654;9.250;2023-04-07T03:46:13;6.70;1.00
2202;DHT22;1107;48.654;9.250;2023-04-07T03:48:42;6.70;99.90
2202;DHT22;1107;48.654;9.250;2023-04-07T03:51:08;6.70;99.90
2202;DHT22;1107;48.654;9.250;2023-04-07T03:53:35;6.70;99.90
2202;DHT22;1107;48.654;9.250;2023-04-07T03:56:02;6.70;1.00
2202;DHT22;1107;48.654;9.250;2023-04-07T03:58:29;6.70;1.00
2202;DHT22;1107;48.654;9.250;2023-04-07T04:00:56;6.80;99.90
2202;DHT22;1107;48.654;9.250;2023-04-07T04:03:23;6.80;1.00
2202;DHT22;1107;48.654;9.250;2023-04-07T04:05:51;6.80;1.00
2202;DHT22;1107;48.654;9.250;2023-04-07T04:08:19;6.80;1.00
2202;DHT22;1107;48.654;9.250;2023-04-07T04:10:46;6.80;99.90
2202;DHT22;1107;48.654;9.250;2023-04-07T04:13:12;6.80;1.00
2202;DHT22;1107;48.654;9.250;2023-04-07T04:15:39;6.80;1.00
2202;DHT22;1107;48.654;9.250;2023-04-07T04:18:06;6.80;99.90
2202;DHT22;1107;48.654;9.250;2023-04-07T04:20:33;6.80;99.90
2202;DHT22;1107;48.654;9.250;2023-04-07T04:23:01;6.80;99.90
2202;DHT22;1107;48.654;9.250;2023-04-07T04:25:27;6.80;99.90
2202;DHT22;1107;48.654;9.250;2023-04-07T04:27:54;6.90;99.90
2202;DHT22;1107;48.654;9.250;2023-04-07T04:30:21;6.80;99.90
2202;DHT22;1107;48.654;9.250;2023-04-07T04:32:48;6.80;99.90
2202;DHT22;1107;48.654;9.250;2023-04-07T04:35:15;6.90;1.00
2202;DHT22;1107;48.654;9.250;2023-04-07T04:37:41;6.90;99.90
2202;DHT22;1107;48.654;9.250;2023-04-07T04:40:10;6.90;1.00
2202;DHT22;1107;48.654;9.250;2023-04-07T04:42:37;6.90;99.90
2202;DHT22;1107;48.654;9.250;2023-04-07T04:45:04;6.90;1.00
2202;DHT22;1107;48.654;9.250;2023-04-07T04:47:31;6.90;1.00
2202;DHT22;1107;48.654;9.250;2023-04-07T04:49:58;7.00;1.00
2202;DHT22;1107;48.654;9.250;2023-04-07T04:52:24;7.00;1.00
2202;DHT22;1107;48.654;9.250;2023-04-07T04:54:52;7.00;99.90
2202;DHT22;1107;48.654;9.250;2023-04-07T04:57:20;7.00;99.90
2202;DHT22;1107;48.654;9.250;2023-04-07T04:59:47;7.00;1.00
2202;DHT22;1107;48.654;9.250;2023-04-07T05:02:13;7.00;99.90
2202;DHT22;1107;48.654;9.250;2023-04-07T05:04:40;7.10;1.00
2202;DHT22;1107;48.654;9.250;2023-04-07T05:07:07;7.10;1.00
2202;DHT22;1107;48.654;9.250;2023-04-07T05:09:33;7.10;1.00
2202;DHT22;1107;48.654;9.250;2023-04-07T05:12:00;7.10;1.00
2202;DHT22;1107;48.654;9.250;2023-04-07T05:14:28;7.10;99.90
2202;DHT22;1107;48.654;9.250;2023-04-07T05:16:55;7.10;1.00
2202;DHT22;1107;48.654;9.250;2023-04-07T05:19:22;7.10;1.00
2202;DHT22;1107;48.654;9.250;2023-04-07T05:21:48;7.10;99.90
2202;DHT22;1107;48.654;9.250;2023-04-07T05:24:15;7.20;1.00
2202;DHT22;1107;48.654;9.250;2023-04-07T05:26:42;7.20;1.00
2202;DHT22;1107;48.654;9.250;2023-04-07T05:29:09;7.10;99.90
2202;DHT22;1107;48.654;9.250;2023-04-07T05:31:37;7.10;1.00
2202;DHT22;1107;48.654;9.250;2023-04-07T05:34:05;7.20;67.20
2202;DHT22;1107;48.654;9.250;2023-04-07T05:36:32;7.20;1.00
2202;DHT22;1107;48.654;9.250;2023-04-07T05:38:59;7.20;99.90
2202;DHT22;1107;48.654;9.250;2023-04-07T05:41:25;7.20;1.00
2202;DHT22;1107;48.654;9.250;2023-04-07T05:43:52;7.20;1.00
2202;DHT22;1107;48.654;9.250;2023-04-07T05:46:19;7.20;99.90
2202;DHT22;1107;48.654;9.250;2023-04-07T05:48:47;7.20;1.00
2202;DHT22;1107;48.654;9.250;2023-04-07T05:51:14;7.20;99.90
2202;DHT22;1107;48.654;9.250;2023-04-07T05:53:40;7.30;1.00
2202;DHT22;1107;48.654;9.250;2023-04-07T05:56:07;7.30;99.90
2202;DHT22;1107;48.654;9.250;2023-04-07T05:58:34;7.40;96.90
2202;DHT22;1107;48.654;9.250;2023-04-07T06:01:00;7.40;99.90
2202;DHT22;1107;48.654;9.250;2023-04-07T06:03:27;7.40;99.90
2202;DHT22;1107;48.654;9.250;2023-04-07T06:05:55;7.40;1.00
2202;DHT22;1107;48.654;9.250;2023-04-07T06:08:22;7.40;1.00
2202;DHT22;1107;48.654;9.250;2023-04-07T06:10:49;7.50;1.00
2202;DHT22;1107;48.654;9.250;2023-04-07T06:13:16;7.40;99.90
2202;DHT22;1107;48.654;9.250;2023-04-07T06:15:43;7.40;1.00
2202;DHT22;1107;48.654;9.250;2023-04-07T06:18:09;7.30;1.00
2202;DHT22;1107;48.654;9.250;2023-04-07T06:20:36;7.40;1.00
2202;DHT22;1107;48.654;9.250;2023-04-07T06:23:04;7.40;1.00
2202;DHT22;1107;48.654;9.250;2023-04-07T06:25:31;7.40;1.00
2202;DHT22;1107;48.654;9.250;2023-04-07T06:27:58;7.50;1.00
2202;DHT22;1107;48.654;9.250;2023-04-07T06:30:24;7.50;99.90
2202;DHT22;1107;48.654;9.250;2023-04-07T06:32:51;7.60;99.90
2202;DHT22;1107;48.654;9.250;2023-04-07T06:35:18;7.60;99.90
2202;DHT22;1107;48.654;9.250;2023-04-07T06:37:44;7.70;1.00
2202;DHT22;1107;48.654;9.250;2023-04-07T06:40:13;7.70;99.90
2202;DHT22;1107;48.654;9.250;2023-04-07T06:42:40;7.80;1.00
2202;DHT22;1107;48.654;9.250;2023-04-07T06:45:07;7.80;99.90
2202;DHT22;1107;48.654;9.250;2023-04-07T06:47:34;7.90;99.90
2202;DHT22;1107;48.654;9.250;2023-04-07T06:50:01;7.90;99.90
2202;DHT22;1107;48.654;9.250;2023-04-07T06:52:28;7.90;1.00
2202;DHT22;1107;48.654;9.250;2023-04-07T06:54:54;8.00;1.00
2202;DHT22;1107;48.654;9.250;2023-04-07T06:57:22;8.00;1.00
2202;DHT22;1107;48.654;9.250;2023-04-07T06:59:49;8.10;1.00
2202;DHT22;1107;48.654;9.250;2023-04-07T07:02:16;8.10;1.00
2202;DHT22;1107;48.654;9.250;2023-04-07T07:04:43;8.10;1.00
2202;DHT22;1107;48.654;9.250;2023-04-07T07:07:10;8.20;99.90
2202;DHT22;1107;48.654;9.250;2023-04-07T07:09:36;8.30;1.00
2202;DHT22;1107;48.654;9.250;2023-04-07T07:12:03;8.30;1.00
2202;DHT22;1107;48.654;9.250;2023-04-07T07:14:32;8.40;1.00
2202;DHT22;1107;48.654;9.250;2023-04-07T07:16:58;8.50;1.00
2202;DHT22;1107;48.654;9.250;2023-04-07T07:19:25;8.70;1.00
2202;DHT22;1107;48.654;9.250;2023-04-07T07:21:52;8.70;1.00
2202;DHT22;1107;48.654;9.250;2023-04-07T07:24:19;8.80;99.90
2202;DHT22;1107;48.654;9.250;2023-04-07T07:26:46;8.90;99.90
2202;DHT22;1107;48.654;9.250;2023-04-07T07:29:13;9.10;1.00
2202;DHT22;1107;48.654;9.250;2023-04-07T07:31:41;9.00;1.00
2202;DHT22;1107;48.654;9.250;2023-04-07T07:34:09;9.00;99.90
2202;DHT22;1107;48.654;9.250;2023-04-07T07:36:35;8.90;1.00
2202;DHT22;1107;48.654;9.250;2023-04-07T07:39:02;9.00;1.00
2202;DHT22;1107;48.654;9.250;2023-04-07T07:41:29;9.00;99.90
2202;DHT22;1107;48.654;9.250;2023-04-07T07:43:56;8.90;99.90
2202;DHT22;1107;48.654;9.250;2023-04-07T07:46:23;8.90;99.90
2202;DHT22;1107;48.654;9.250;2023-04-07T07:48:52;9.10;99.90
2202;DHT22;1107;48.654;9.250;2023-04-07T07:51:19;9.30;99.90
2202;DHT22;1107;48.654;9.250;2023-04-07T07:53:46;9.80;77.20
2202;DHT22;1107;48.654;9.250;2023-04-07T07:56:13;9.90;1.00
2202;DHT22;1107;48.654;9.250;2023-04-07T07:58:40;10.30;1.00
2202;DHT22;1107;48.654;9.250;2023-04-07T08:01:07;10.70;1.00
2202;DHT22;1107;48.654;9.250;2023-04-07T08:03:33;11.30;1.00
2202;DHT22;1107;48.654;9.250;2023-04-07T08:06:01;11.80;1.00
2202;DHT22;1107;48.654;9.250;2023-04-07T08:08:28;12.30;1.00
2202;DHT22;1107;48.654;9.250;2023-04-07T08:10:55;12.80;1.00
2202;DHT22;1107;48.654;9.250;2023-04-07T08:13:22;13.80;1.00
2202;DHT22;1107;48.654;9.250;2023-04-07T08:15:48;14.50;99.90
2202;DHT22;1107;48.654;9.250;2023-04-07T08:18:15;14.80;99.90
2202;DHT22;1107;48.654;9.250;2023-04-07T08:20:42;15.50;99.90
2202;DHT22;1107;48.654;9.250;2023-04-07T08:23:10;15.90;99.90
2202;DHT22;1107;48.654;9.250;2023-04-07T08:25:37;16.10;99.90
2202;DHT22;1107;48.654;9.250;2023-04-07T08:28:05;16.50;99.90
2202;DHT22;1107;48.654;9.250;2023-04-07T08:30:32;16.90;99.90
2202;DHT22;1107;48.654;9.250;2023-04-07T08:32:58;17.10;99.90
2202;DHT22;1107;48.654;9.250;2023-04-07T08:35:25;17.80;99.90
2202;DHT22;1107;48.654;9.250;2023-04-07T08:37:52;18.00;99.90
2202;DHT22;1107;48.654;9.250;2023-04-07T08:40:20;18.00;99.90
2202;DHT22;1107;48.654;9.250;2023-04-07T08:42:47;18.00;99.90
2202;DHT22;1107;48.654;9.250;2023-04-07T08:45:15;18.00;99.90
2202;DHT22;1107;48.654;9.250;2023-04-07T08:47:42;18.60;99.90
2202;DHT22;1107;48.654;9.250;2023-04-07T08:50:10;19.30;99.90
2202;DHT22;1107;48.654;9.250;2023-04-07T08:52:39;19.20;99.90
2202;DHT22;1107;48.654;9.250;2023-04-07T08:55:06;18.20;99.90
2202;DHT22;1107;48.654;9.250;2023-04-07T08:57:34;17.80;99.90
2202;DHT22;1107;48.654;9.250;2023-04-07T09:00:02;17.90;99.90
2202;DHT22;1107;48.654;9.250;2023-04-07T09:02:30;18.60;99.90
2202;DHT22;1107;48.654;9.250;2023-04-07T09:04:58;19.10;99.90
2202;DHT22;1107;48.654;9.250;2023-04-07T09:07:24;20.20;99.90
2202;DHT22;1107;48.654;9.250;2023-04-07T09:09:51;21.40;99.90
2202;DHT22;1107;48.654;9.250;2023-04-07T09:12:18;22.20;99.90
2202;DHT22;1107;48.654;9.250;2023-04-07T09:14:46;22.30;99.90
2202;DHT22;1107;48.654;9.250;2023-04-07T09:17:13;22.60;99.90
2202;DHT22;1107;48.654;9.250;2023-04-07T09:19:40;23.00;99.90
2202;DHT22;1107;48.654;9.250;2023-04-07T09:22:07;23.60;99.90
2202;DHT22;1107;48.654;9.250;2023-04-07T09:24:36;24.30;99.90
2202;DHT22;1107;48.654;9.250;2023-04-07T09:27:10;24.70;99.90
2202;DHT22;1107;48.654;9.250;2023-04-07T09:29:37;25.30;99.90
2202;DHT22;1107;48.654;9.250;2023-04-07T09:32:06;25.20;99.90
2202;DHT22;1107;48.654;9.250;2023-04-07T09:34:33;24.50;99.40
2202;DHT22;1107;48.654;9.250;2023-04-07T09:37:00;24.00;97.00
2202;DHT22;1107;48.654;9.250;2023-04-07T09:39:27;23.50;93.80
2202;DHT22;1107;48.654;9.250;2023-04-07T09:41:56;22.80;88.20
2202;DHT22;1107;48.654;9.250;2023-04-07T09:44:24;22.40;89.20
2202;DHT22;1107;48.654;9.250;2023-04-07T09:46:52;21.80;82.90
2202;DHT22;1107;48.654;9.250;2023-04-07T09:49:20;21.30;81.80
2202;DHT22;1107;48.654;9.250;2023-04-07T09:51:55;21.00;78.50
2202;DHT22;1107;48.654;9.250;2023-04-07T09:54:33;20.70;78.30
2202;DHT22;1107;48.654;9.250;2023-04-07T09:57:01;20.50;76.60
2202;DHT22;1107;48.654;9.250;2023-04-07T09:59:28;20.40;74.30
2202;DHT22;1107;48.654;9.250;2023-04-07T10:01:55;20.10;73.90
2202;DHT22;1107;48.654;9.250;2023-04-07T10:04:24;20.10;75.40
2202;DHT22;1107;48.654;9.250;2023-04-07T10:06:52;20.20;78.20
2202;DHT22;1107;48.654;9.250;2023-04-07T10:09:20;20.20;79.30
2202;DHT22;1107;48.654;9.250;2023-04-07T10:11:49;20.00;76.10
2202;DHT22;1107;48.654;9.250;2023-04-07T10:14:18;19.90;77.90
2202;DHT22;1107;48.654;9.250;2023-04-07T10:16:46;20.00;78.20
2202;DHT22;1107;48.654;9.250;2023-04-07T10:19:13;19.80;77.40
2202;DHT22;1107;48.654;9.250;2023-04-07T10:21:43;19.50;74.20
2202;DHT22;1107;48.654;9.250;2023-04-07T10:24:17;19.20;71.10
2202;DHT22;1107;48.654;9.250;2023-04-07T10:26:50;19.30;96.70
2202;DHT22;1107;48.654;9.250;2023-04-07T10:29:19;19.40;79.70
2202;DHT22;1107;48.654;9.250;2023-04-07T10:31:48;19.50;73.20
2202;DHT22;1107;48.654;9.250;2023-04-07T10:34:16;19.50;79.60
2202;DHT22;1107;48.654;9.250;2023-04-07T10:37:08;19.40;78.00
2202;DHT22;1107;48.654;9.250;2023-04-07T10:39:37;19.30;71.60
2202;DHT22;1107;48.654;9.250;2023-04-07T10:42:05;19.30;72.90
2202;DHT22;1107;48.654;9.250;2023-04-07T10:44:46;19.40;74.30
2202;DHT22;1107;48.654;9.250;2023-04-07T10:47:14;19.50;77.10
2202;DHT22;1107;48.654;9.250;2023-04-07T10:50:16;19.50;82.10
2202;DHT22;1107;48.654;9.250;2023-04-07T10:52:45;19.50;87.30
2202;DHT22;1107;48.654;9.250;2023-04-07T10:55:28;20.00;80.50
2202;DHT22;1107;48.654;9.250;2023-04-07T10:58:19;20.00;95.40
2202;DHT22;1107;48.654;9.250;2023-04-07T11:01:18;19.60;69.20
2202;DHT22;1107;48.654;9.250;2023-04-07T11:03:57;18.90;66.80
2202;DHT22;1107;48.654;9.250;2023-04-07T11:06:25;18.10;58.40
2202;DHT22;1107;48.654;9.250;2023-04-07T11:08:54;17.40;58.80
2202;DHT22;1107;48.654;9.250;2023-04-07T11:11:37;16.80;58.00
2202;DHT22;1107;48.654;9.250;2023-04-07T11:14:04;16.40;60.70
2202;DHT22;1107;48.654;9.250;2023-04-07T11:16:36;16.20;68.90
2202;DHT22;1107;48.654;9.250;2023-04-07T11:19:04;15.90;95.60
2202;DHT22;1107;48.654;9.250;2023-04-07T11:21:31;15.60;77.60
2202;DHT22;1107;48.654;9.250;2023-04-07T11:24:00;15.30;88.80
2202;DHT22;1107;48.654;9.250;2023-04-07T11:26:27;14.70;84.40
2202;DHT22;1107;48.654;9.250;2023-04-07T11:28:55;14.30;84.20
2202;DHT22;1107;48.654;9.250;2023-04-07T11:31:24;13.70;82.00
2202;DHT22;1107;48.654;9.250;2023-04-07T11:33:52;13.40;85.40
2202;DHT22;1107;48.654;9.250;2023-04-07T11:36:27;13.10;91.70
2202;DHT22;1107;48.654;9.250;2023-04-07T11:38:56;13.00;97.50
2202;DHT22;1107;48.654;9.250;2023-04-07T11:41:25;13.00;99.90
2202;DHT22;1107;48.654;9.250;2023-04-07T11:44:06;12.90;99.90
2202;DHT22;1107;48.654;9.250;2023-04-07T11:46:33;12.80;99.90
2202;DHT22;1107;48.654;9.250;2023-04-07T11:49:11;12.80;99.90
2202;DHT22;1107;48.654;9.250;2023-04-07T11:51:39;12.70;99.90
2202;DHT22;1107;48.654;9.250;2023-04-07T11:54:07;12.70;99.90
2202;DHT22;1107;48.654;9.250;2023-04-07T11:56:44;12.70;99.90
2202;DHT22;1107;48.654;9.250;2023-04-07T11:59:19;12.80;99.90
2202;DHT22;1107;48.654;9.250;2023-04-07T12:01:48;12.80;99.90
2202;DHT22;1107;48.654;9.250;2023-04-07T12:04:15;12.70;99.90
2202;DHT22;1107;48.654;9.250;2023-04-07T12:06:44;12.70;99.90
2202;DHT22;1107;48.654;9.250;2023-04-07T12:09:25;12.70;99.90
2202;DHT22;1107;48.654;9.250;2023-04-07T12:11:55;12.80;99.90
2202;DHT22;1107;48.654;9.250;2023-04-07T12:14:23;12.60;99.90
2202;DHT22;1107;48.654;9.250;2023-04-07T12:16:51;12.50;99.90
2202;DHT22;1107;48.654;9.250;2023-04-07T12:19:21;12.40;99.90
2202;DHT22;1107;48.654;9.250;2023-04-07T12:21:47;12.40;99.90
2202;DHT22;1107;48.654;9.250;2023-04-07T12:24:14;12.40;99.90
2202;DHT22;1107;48.654;9.250;2023-04-07T12:26:43;12.30;99.90
2202;DHT22;1107;48.654;9.250;2023-04-07T12:29:12;12.30;99.90
2202;DHT22;1107;48.654;9.250;2023-04-07T12:31:39;12.20;99.90
2202;DHT22;1107;48.654;9.250;2023-04-07T12:34:06;12.10;99.90
2202;DHT22;1107;48.654;9.250;2023-04-07T12:36:34;11.90;99.90
2202;DHT22;1107;48.654;9.250;2023-04-07T12:39:01;11.80;1.00
2202;DHT22;1107;48.654;9.250;2023-04-07T12:41:28;11.80;1.00
2202;DHT22;1107;48.654;9.250;2023-04-07T12:43:55;11.70;1.00
2202;DHT22;1107;48.654;9.250;2023-04-07T12:46:24;11.70;1.00
2202;DHT22;1107;48.654;9.250;2023-04-07T12:48:51;11.70;1.00
2202;DHT22;1107;48.654;9.250;2023-04-07T12:51:18;11.80;1.00
2202;DHT22;1107;48.654;9.250;2023-04-07T12:53:45;11.80;1.00
2202;DHT22;1107;48.654;9.250;2023-04-07T12:56:12;11.80;1.00
2202;DHT22;1107;48.654;9.250;2023-04-07T12:58:40;11.80;1.00
2202;DHT22;1107;48.654;9.250;2023-04-07T13:01:07;11.90;58.10
2202;DHT22;1107;48.654;9.250;2023-04-07T13:03:35;12.00;1.00
2202;DHT22;1107;48.654;9.250;2023-04-07T13:06:04;11.90;1.00
2202;DHT22;1107;48.654;9.250;2023-04-07T13:08:31;12.00;1.00
2202;DHT22;1107;48.654;9.250;2023-04-07T13:10:58;12.00;1.00
2202;DHT22;1107;48.654;9.250;2023-04-07T13:13:25;12.00;1.00
2202;DHT22;1107;48.654;9.250;2023-04-07T13:15:52;12.10;11.40
2202;DHT22;1107;48.654;9.250;2023-04-07T13:18:19;12.20;1.00
2202;DHT22;1107;48.654;9.250;2023-04-07T13:20:47;12.30;1.00
2202;DHT22;1107;48.654;9.250;2023-04-07T13:23:14;12.40;1.00
2202;DHT22;1107;48.654;9.250;2023-04-07T13:25:41;12.50;1.00
2202;DHT22;1107;48.654;9.250;2023-04-07T13:28:08;12.70;1.00
2202;DHT22;1107;48.654;9.250;2023-04-07T13:30:36;12.80;1.00
2202;DHT22;1107;48.654;9.250;2023-04-07T13:33:03;13.00;1.00
2202;DHT22;1107;48.654;9.250;2023-04-07T13:35:30;13.20;1.00
2202;DHT22;1107;48.654;9.250;2023-04-07T13:38:01;13.40;1.00
2202;DHT22;1107;48.654;9.250;2023-04-07T13:40:29;13.60;99.90
2202;DHT22;1107;48.654;9.250;2023-04-07T13:42:55;13.80;99.90
2202;DHT22;1107;48.654;9.250;2023-04-07T13:45:25;13.90;99.90
2202;DHT22;1107;48.654;9.250;2023-04-07T13:47:52;14.00;99.90
2202;DHT22;1107;48.654;9.250;2023-04-07T13:50:19;14.10;99.90
2202;DHT22;1107;48.654;9.250;2023-04-07T13:52:46;14.10;99.90
2202;DHT22;1107;48.654;9.250;2023-04-07T13:55:15;14.10;99.90
2202;DHT22;1107;48.654;9.250;2023-04-07T13:57:44;14.20;99.90
2202;DHT22;1107;48.654;9.250;2023-04-07T14:00:12;14.20;99.90
2202;DHT22;1107;48.654;9.250;2023-04-07T14:02:40;14.20;99.90
2202;DHT22;1107;48.654;9.250;2023-04-07T14:05:07;14.30;99.90
2202;DHT22;1107;48.654;9.250;2023-04-07T14:07:34;14.40;99.90
2202;DHT22;1107;48.654;9.250;2023-04-07T14:10:01;14.50;99.90
2202;DHT22;1107;48.654;9.250;2023-04-07T14:12:29;14.60;99.90
2202;DHT22;1107;48.654;9.250;2023-04-07T14:14:57;14.60;99.90
2202;DHT22;1107;48.654;9.250;2023-04-07T14:17:24;14.60;99.90
2202;DHT22;1107;48.654;9.250;2023-04-07T14:19:51;14.70;99.90
2202;DHT22;1107;48.654;9.250;2023-04-07T14:22:18;14.90;99.90
2202;DHT22;1107;48.654;9.250;2023-04-07T14:24:46;15.00;99.90
2202;DHT22;1107;48.654;9.250;2023-04-07T14:27:13;15.10;99.90
2202;DHT22;1107;48.654;9.250;2023-04-07T14:29:46;15.30;99.90
2202;DHT22;1107;48.654;9.250;2023-04-07T14:32:13;15.40;99.90
2202;DHT22;1107;48.654;9.250;2023-04-07T14:34:41;15.40;99.90
2202;DHT22;1107;48.654;9.250;2023-04-07T14:37:08;15.40;99.90
2202;DHT22;1107;48.654;9.250;2023-04-07T14:39:35;15.30;99.90
2202;DHT22;1107;48.654;9.250;2023-04-07T14:42:03;15.20;99.90
2202;DHT22;1107;48.654;9.250;2023-04-07T14:44:30;15.40;99.90
2202;DHT22;1107;48.654;9.250;2023-04-07T14:46:59;15.40;99.90
2202;DHT22;1107;48.654;9.250;2023-04-07T14:49:26;15.60;99.90
2202;DHT22;1107;48.654;9.250;2023-04-07T14:51:53;15.60;99.90
2202;DHT22;1107;48.654;9.250;2023-04-07T14:54:20;15.60;99.90
2202;DHT22;1107;48.654;9.250;2023-04-07T14:56:47;15.50;99.90
2202;DHT22;1107;48.654;9.250;2023-04-07T14:59:15;15.30;99.90
2202;DHT22;1107;48.654;9.250;2023-04-07T15:01:42;15.10;99.90
2202;DHT22;1107;48.654;9.250;2023-04-07T15:04:10;15.00;99.90
2202;DHT22;1107;48.654;9.250;2023-04-07T15:06:39;14.90;99.90
2202;DHT22;1107;48.654;9.250;2023-04-07T15:09:06;14.80;99.90
2202;DHT22;1107;48.654;9.250;2023-04-07T15:11:35;14.80;99.90
2202;DHT22;1107;48.654;9.250;2023-04-07T15:14:02;14.70;99.90
2202;DHT22;1107;48.654;9.250;2023-04-07T15:16:31;14.70;99.90
2202;DHT22;1107;48.654;9.250;2023-04-07T15:18:58;14.70;99.90
2202;DHT22;1107;48.654;9.250;2023-04-07T15:21:27;14.90;99.90
2202;DHT22;1107;48.654;9.250;2023-04-07T15:23:54;15.30;99.90
2202;DHT22;1107;48.654;9.250;2023-04-07T15:26:21;15.50;99.90
2202;DHT22;1107;48.654;9.250;2023-04-07T15:28:48;15.40;99.90
2202;DHT22;1107;48.654;9.250;2023-04-07T15:31:15;15.10;99.90
2202;DHT22;1107;48.654;9.250;2023-04-07T15:33:42;14.80;99.90
2202;DHT22;1107;48.654;9.250;2023-04-07T15:36:10;14.50;99.90
2202;DHT22;1107;48.654;9.250;2023-04-07T15:38:39;14.30;99.90
2202;DHT22;1107;48.654;9.250;2023-04-07T15:41:06;14.10;99.90
2202;DHT22;1107;48.654;9.250;2023-04-07T15:43:34;13.90;99.90
2202;DHT22;1107;48.654;9.250;2023-04-07T15:46:01;13.70;99.90
2202;DHT22;1107;48.654;9.250;2023-04-07T15:48:28;13.50;99.90
2202;DHT22;1107;48.654;9.250;2023-04-07T15:50:55;13.40;99.90
2202;DHT22;1107;48.654;9.250;2023-04-07T15:53:22;13.20;99.90
2202;DHT22;1107;48.654;9.250;2023-04-07T15:55:50;13.20;99.90
2202;DHT22;1107;48.654;9.250;2023-04-07T15:58:17;13.10;99.90
2202;DHT22;1107;48.654;9.250;2023-04-07T16:00:44;13.00;99.90
2202;DHT22;1107;48.654;9.250;2023-04-07T16:03:11;12.90;99.90
2202;DHT22;1107;48.654;9.250;2023-04-07T16:05:38;12.90;99.90
2202;DHT22;1107;48.654;9.250;2023-04-07T16:08:05;12.80;99.90
2202;DHT22;1107;48.654;9.250;2023-04-07T16:10:32;12.70;99.90
2202;DHT22;1107;48.654;9.250;2023-04-07T16:13:00;12.70;99.90
2202;DHT22;1107;48.654;9.250;2023-04-07T16:15:27;12.60;99.90
2202;DHT22;1107;48.654;9.250;2023-04-07T16:17:57;12.60;99.90
2202;DHT22;1107;48.654;9.250;2023-04-07T16:20:24;12.50;99.90